sensor_id;sensor_type;location;lat;lon;timestamp;temperature;humidity
18365;DHT22;9309;52.126;11.616;2023-01-10T00:01:39;6.10;87.60
18365;DHT22;9309;52.126;11.616;2023-01-10T00:04:07;6.10;87.40
18365;DHT22;9309;52.126;11.616;2023-01-10T00:06:34;6.20;87.20
18365;DHT22;9309;52.126;11.616;2023-01-10T00:09:01;6.20;87.00
18365;DHT22;9309;52.126;11.616;2023-01-10T00:11:28;6.10;87.50
18365;DHT22;9309;52.126;11.616;2023-01-10T00:14:12;6.10;87.80
18365;DHT22;9309;52.126;11.616;2023-01-10T00:16:39;6.10;87.60
18365;DHT22;9309;52.126;11.616;2023-01-10T00:19:08;6.20;87.60
18365;DHT22;9309;52.126;11.616;2023-01-10T00:21:36;6.20;87.80
18365;DHT22;9309;52.126;11.616;2023-01-10T00:24:05;6.20;88.10
18365;DHT22;9309;52.126;11.616;2023-01-10T00:26:42;6.10;88.50
18365;DHT22;9309;52.126;11.616;2023-01-10T00:29:10;6.20;89.00
18365;DHT22;9309;52.126;11.616;2023-01-10T00:31:37;6.10;88.60
18365;DHT22;9309;52.126;11.616;2023-01-10T00:34:04;6.10;88.90
18365;DHT22;9309;52.126;11.616;2023-01-10T00:36:34;6.20;88.50
18365;DHT22;9309;52.126;11.616;2023-01-10T00:39:02;6.20;88.20
18365;DHT22;9309;52.126;11.616;2023-01-10T00:41:37;6.20;87.70
18365;DHT22;9309;52.126;11.616;2023-01-10T00:44:21;6.10;87.80
18365;DHT22;9309;52.126;11.616;2023-01-10T00:46:48;6.10;88.00
18365;DHT22;9309;52.126;11.616;2023-01-10T00:49:14;6.10;87.70
18365;DHT22;9309;52.126;11.616;2023-01-10T00:51:43;6.00;88.10
18365;DHT22;9309;52.126;11.616;2023-01-10T00:54:11;6.00;88.10
18365;DHT22;9309;52.126;11.616;2023-01-10T00:56:38;5.90;88.30
18365;DHT22;9309;52.126;11.616;2023-01-10T00:59:06;5.90;88.00
18365;DHT22;9309;52.126;11.616;2023-01-10T01:01:32;5.80;88.50
18365;DHT22;9309;52.126;11.616;2023-01-10T01:03:59;5.80;88.50
18365;DHT22;9309;52.126;11.616;2023-01-10T01:06:26;5.70;88.80
18365;DHT22;9309;52.126;11.616;2023-01-10T01:08:54;5.90;88.50
18365;DHT22;9309;52.126;11.616;2023-01-10T01:11:20;5.90;87.80
18365;DHT22;9309;52.126;11.616;2023-01-10T01:13:47;5.90;87.60
18365;DHT22;9309;52.126;11.616;2023-01-10T01:16:14;5.70;88.10
18365;DHT22;9309;52.126;11.616;2023-01-10T01:18:40;5.70;87.80
18365;DHT22;9309;52.126;11.616;2023-01-10T01:21:07;5.60;88.40
18365;DHT22;9309;52.126;11.616;2023-01-10T01:23:35;5.50;89.10
18365;DHT22;9309;52.126;11.616;2023-01-10T01:26:03;5.50;89.40
18365;DHT22;9309;52.126;11.616;2023-01-10T01:28:31;5.60;88.60
18365;DHT22;9309;52.126;11.616;2023-01-10T01:31:05;5.60;88.30
18365;DHT22;9309;52.126;11.616;2023-01-10T01:33:32;5.50;88.30
18365;DHT22;9309;52.126;11.616;2023-01-10T01:35:59;5.60;88.40
18365;DHT22;9309;52.126;11.616;2023-01-10T01:38:26;5.70;87.70
18365;DHT22;9309;52.126;11.616;2023-01-10T01:40:53;5.80;86.80
18365;DHT22;9309;52.126;11.616;2023-01-10T01:43:28;5.90;86.80
18365;DHT22;9309;52.126;11.616;2023-01-10T01:45:57;5.90;86.60
18365;DHT22;9309;52.126;11.616;2023-01-10T01:48:34;5.80;86.60
18365;DHT22;9309;52.126;11.616;2023-01-10T01:51:07;5.70;87.10
18365;DHT22;9309;52.126;11.616;2023-01-10T01:53:39;5.70;87.10
18365;DHT22;9309;52.126;11.616;2023-01-10T01:56:10;5.50;87.70
18365;DHT22;9309;52.126;11.616;2023-01-10T01:58:44;5.50;87.70
18365;DHT22;9309;52.126;11.616;2023-01-10T02:01:13;5.50;88.00
18365;DHT22;9309;52.126;11.616;2023-01-10T02:03:42;5.40;88.30
18365;DHT22;9309;52.126;11.616;2023-01-10T02:06:11;5.40;88.30
18365;DHT22;9309;52.126;11.616;2023-01-10T02:08:39;5.40;88.10
18365;DHT22;9309;52.126;11.616;2023-01-10T02:11:09;5.50;88.00
18365;DHT22;9309;52.126;11.616;2023-01-10T02:13:40;5.60;87.80
18365;DHT22;9309;52.126;11.616;2023-01-10T02:16:08;5.60;87.50
18365;DHT22;9309;52.126;11.616;2023-01-10T02:18:35;5.60;87.60
18365;DHT22;9309;52.126;11.616;2023-01-10T02:21:18;5.80;87.30
18365;DHT22;9309;52.126;11.616;2023-01-10T02:24:06;5.90;87.30
18365;DHT22;9309;52.126;11.616;2023-01-10T02:26:58;6.00;86.70
18365;DHT22;9309;52.126;11.616;2023-01-10T02:32:39;6.00;86.40
18365;DHT22;9309;52.126;11.616;2023-01-10T02:35:24;6.10;85.80
18365;DHT22;9309;52.126;11.616;2023-01-10T02:37:59;6.20;85.30
18365;DHT22;9309;52.126;11.616;2023-01-10T02:40:36;6.20;85.20
18365;DHT22;9309;52.126;11.616;2023-01-10T02:43:07;6.20;85.20
18365;DHT22;9309;52.126;11.616;2023-01-10T02:45:38;6.20;85.10
18365;DHT22;9309;52.126;11.616;2023-01-10T02:48:07;6.10;85.60
18365;DHT22;9309;52.126;11.616;2023-01-10T02:50:44;6.10;85.30
18365;DHT22;9309;52.126;11.616;2023-01-10T02:53:17;6.10;85.70
18365;DHT22;9309;52.126;11.616;2023-01-10T02:56:11;6.10;85.80
18365;DHT22;9309;52.126;11.616;2023-01-10T02:58:48;6.10;85.80
18365;DHT22;9309;52.126;11.616;2023-01-10T03:01:24;6.10;85.50
18365;DHT22;9309;52.126;11.616;2023-01-10T03:04:01;6.10;85.70
18365;DHT22;9309;52.126;11.616;2023-01-10T03:06:33;6.10;85.20
18365;DHT22;9309;52.126;11.616;2023-01-10T03:09:11;6.10;85.40
18365;DHT22;9309;52.126;11.616;2023-01-10T03:11:41;6.20;85.10
18365;DHT22;9309;52.126;11.616;2023-01-10T03:14:15;6.20;84.60
18365;DHT22;9309;52.126;11.616;2023-01-10T03:16:46;6.20;84.70
18365;DHT22;9309;52.126;11.616;2023-01-10T03:19:18;6.20;84.70
18365;DHT22;9309;52.126;11.616;2023-01-10T03:21:47;6.10;84.60
18365;DHT22;9309;52.126;11.616;2023-01-10T03:24:19;6.00;85.20
18365;DHT22;9309;52.126;11.616;2023-01-10T03:26:52;6.00;85.10
18365;DHT22;9309;52.126;11.616;2023-01-10T03:29:28;6.10;85.20
18365;DHT22;9309;52.126;11.616;2023-01-10T03:32:00;5.90;85.20
18365;DHT22;9309;52.126;11.616;2023-01-10T03:34:31;5.90;85.80
18365;DHT22;9309;52.126;11.616;2023-01-10T03:37:02;6.00;85.60
18365;DHT22;9309;52.126;11.616;2023-01-10T03:39:33;6.00;85.30
18365;DHT22;9309;52.126;11.616;2023-01-10T03:45:53;6.10;85.00
18365;DHT22;9309;52.126;11.616;2023-01-10T03:48:24;5.90;85.40
18365;DHT22;9309;52.126;11.616;2023-01-10T03:50:55;5.80;85.50
18365;DHT22;9309;52.126;11.616;2023-01-10T03:53:22;5.80;86.20
18365;DHT22;9309;52.126;11.616;2023-01-10T03:55:48;5.90;86.10
18365;DHT22;9309;52.126;11.616;2023-01-10T03:58:15;5.90;85.90
18365;DHT22;9309;52.126;11.616;2023-01-10T04:00:46;5.90;86.00
18365;DHT22;9309;52.126;11.616;2023-01-10T04:03:12;5.90;85.80
18365;DHT22;9309;52.126;11.616;2023-01-10T04:05:40;6.00;85.80
18365;DHT22;9309;52.126;11.616;2023-01-10T04:08:08;5.90;86.00
18365;DHT22;9309;52.126;11.616;2023-01-10T04:10:35;5.90;86.20
18365;DHT22;9309;52.126;11.616;2023-01-10T04:13:03;5.80;86.30
18365;DHT22;9309;52.126;11.616;2023-01-10T04:15:30;5.80;86.80
18365;DHT22;9309;52.126;11.616;2023-01-10T04:17:57;5.90;86.40
18365;DHT22;9309;52.126;11.616;2023-01-10T04:20:23;5.90;86.20
18365;DHT22;9309;52.126;11.616;2023-01-10T04:22:51;5.70;86.80
18365;DHT22;9309;52.126;11.616;2023-01-10T04:25:20;5.70;87.10
18365;DHT22;9309;52.126;11.616;2023-01-10T04:27:47;5.80;87.10
18365;DHT22;9309;52.126;11.616;2023-01-10T04:30:15;5.80;86.80
18365;DHT22;9309;52.126;11.616;2023-01-10T04:32:41;5.80;86.90
18365;DHT22;9309;52.126;11.616;2023-01-10T04:35:08;5.70;86.80
18365;DHT22;9309;52.126;11.616;2023-01-10T04:37:35;5.70;87.20
18365;DHT22;9309;52.126;11.616;2023-01-10T04:40:06;5.70;87.10
18365;DHT22;9309;52.126;11.616;2023-01-10T04:42:34;5.70;87.10
18365;DHT22;9309;52.126;11.616;2023-01-10T04:45:01;5.60;87.00
18365;DHT22;9309;52.126;11.616;2023-01-10T04:47:28;5.50;87.50
18365;DHT22;9309;52.126;11.616;2023-01-10T04:49:54;5.50;87.70
18365;DHT22;9309;52.126;11.616;2023-01-10T04:52:21;5.50;87.80
18365;DHT22;9309;52.126;11.616;2023-01-10T04:54:50;5.50;88.00
18365;DHT22;9309;52.126;11.616;2023-01-10T04:57:17;5.50;88.10
18365;DHT22;9309;52.126;11.616;2023-01-10T04:59:46;5.50;88.10
18365;DHT22;9309;52.126;11.616;2023-01-10T05:02:13;5.40;88.10
18365;DHT22;9309;52.126;11.616;2023-01-10T05:04:41;5.40;88.30
18365;DHT22;9309;52.126;11.616;2023-01-10T05:07:07;5.30;88.40
18365;DHT22;9309;52.126;11.616;2023-01-10T05:09:34;5.30;88.50
18365;DHT22;9309;52.126;11.616;2023-01-10T05:12:01;5.30;88.40
18365;DHT22;9309;52.126;11.616;2023-01-10T05:14:27;5.40;88.40
18365;DHT22;9309;52.126;11.616;2023-01-10T05:16:55;5.40;87.90
18365;DHT22;9309;52.126;11.616;2023-01-10T05:19:22;5.40;88.10
18365;DHT22;9309;52.126;11.616;2023-01-10T05:21:49;5.40;87.80
18365;DHT22;9309;52.126;11.616;2023-01-10T05:24:17;5.30;87.90
18365;DHT22;9309;52.126;11.616;2023-01-10T05:26:44;5.20;88.70
18365;DHT22;9309;52.126;11.616;2023-01-10T05:29:11;5.30;88.70
18365;DHT22;9309;52.126;11.616;2023-01-10T05:31:39;5.30;88.40
18365;DHT22;9309;52.126;11.616;2023-01-10T05:34:10;5.30;88.10
18365;DHT22;9309;52.126;11.616;2023-01-10T05:36:37;5.30;87.90
18365;DHT22;9309;52.126;11.616;2023-01-10T05:39:03;5.30;88.00
18365;DHT22;9309;52.126;11.616;2023-01-10T05:41:30;5.30;88.30
18365;DHT22;9309;52.126;11.616;2023-01-10T05:43:57;5.20;88.70
18365;DHT22;9309;52.126;11.616;2023-01-10T05:46:26;5.30;88.40
18365;DHT22;9309;52.126;11.616;2023-01-10T05:48:52;5.40;88.30
18365;DHT22;9309;52.126;11.616;2023-01-10T05:51:21;5.50;87.60
18365;DHT22;9309;52.126;11.616;2023-01-10T05:53:47;5.50;87.90
18365;DHT22;9309;52.126;11.616;2023-01-10T05:56:14;5.50;87.50
18365;DHT22;9309;52.126;11.616;2023-01-10T05:58:40;5.40;87.90
18365;DHT22;9309;52.126;11.616;2023-01-10T06:01:07;5.30;88.30
18365;DHT22;9309;52.126;11.616;2023-01-10T06:03:34;5.30;89.10
18365;DHT22;9309;52.126;11.616;2023-01-10T06:06:01;5.40;88.60
18365;DHT22;9309;52.126;11.616;2023-01-10T06:08:29;5.40;88.30
18365;DHT22;9309;52.126;11.616;2023-01-10T06:10:56;5.50;88.60
18365;DHT22;9309;52.126;11.616;2023-01-10T06:13:23;5.50;88.00
18365;DHT22;9309;52.126;11.616;2023-01-10T06:15:50;5.50;88.30
18365;DHT22;9309;52.126;11.616;2023-01-10T06:18:17;5.50;88.40
18365;DHT22;9309;52.126;11.616;2023-01-10T06:20:43;5.60;88.50
18365;DHT22;9309;52.126;11.616;2023-01-10T06:23:11;5.80;87.60
18365;DHT22;9309;52.126;11.616;2023-01-10T06:25:39;5.90;87.10
18365;DHT22;9309;52.126;11.616;2023-01-10T06:28:06;6.00;86.50
18365;DHT22;9309;52.126;11.616;2023-01-10T06:30:33;6.00;86.30
18365;DHT22;9309;52.126;11.616;2023-01-10T06:33:00;6.00;86.10
18365;DHT22;9309;52.126;11.616;2023-01-10T06:35:27;6.00;86.40
18365;DHT22;9309;52.126;11.616;2023-01-10T06:37:54;6.10;86.10
18365;DHT22;9309;52.126;11.616;2023-01-10T06:40:21;6.10;85.70
18365;DHT22;9309;52.126;11.616;2023-01-10T06:42:49;6.10;85.80
18365;DHT22;9309;52.126;11.616;2023-01-10T06:45:16;6.30;85.40
18365;DHT22;9309;52.126;11.616;2023-01-10T06:47:43;6.30;84.70
18365;DHT22;9309;52.126;11.616;2023-01-10T06:50:10;6.20;85.70
18365;DHT22;9309;52.126;11.616;2023-01-10T06:52:37;6.30;85.30
18365;DHT22;9309;52.126;11.616;2023-01-10T06:55:05;6.30;85.20
18365;DHT22;9309;52.126;11.616;2023-01-10T06:57:32;6.30;85.50
18365;DHT22;9309;52.126;11.616;2023-01-10T07:00:01;6.30;85.40
18365;DHT22;9309;52.126;11.616;2023-01-10T07:02:28;6.30;85.30
18365;DHT22;9309;52.126;11.616;2023-01-10T07:04:54;6.30;85.20
18365;DHT22;9309;52.126;11.616;2023-01-10T07:07:21;6.20;85.80
18365;DHT22;9309;52.126;11.616;2023-01-10T07:09:48;6.30;85.50
18365;DHT22;9309;52.126;11.616;2023-01-10T07:12:14;6.20;85.40
18365;DHT22;9309;52.126;11.616;2023-01-10T07:14:41;6.20;86.30
18365;DHT22;9309;52.126;11.616;2023-01-10T07:17:12;6.40;85.30
18365;DHT22;9309;52.126;11.616;2023-01-10T07:19:38;6.30;85.20
18365;DHT22;9309;52.126;11.616;2023-01-10T07:22:05;6.30;85.30
18365;DHT22;9309;52.126;11.616;2023-01-10T07:24:32;6.40;85.30
18365;DHT22;9309;52.126;11.616;2023-01-10T07:26:59;6.40;85.10
18365;DHT22;9309;52.126;11.616;2023-01-10T07:29:25;6.30;84.80
18365;DHT22;9309;52.126;11.616;2023-01-10T07:31:52;6.30;85.40
18365;DHT22;9309;52.126;11.616;2023-01-10T07:34:20;6.20;85.20
18365;DHT22;9309;52.126;11.616;2023-01-10T07:36:47;6.30;85.00
18365;DHT22;9309;52.126;11.616;2023-01-10T07:39:14;6.10;85.40
18365;DHT22;9309;52.126;11.616;2023-01-10T07:41:41;6.10;85.40
18365;DHT22;9309;52.126;11.616;2023-01-10T07:44:07;6.20;85.30
18365;DHT22;9309;52.126;11.616;2023-01-10T07:46:34;6.20;85.00
18365;DHT22;9309;52.126;11.616;2023-01-10T07:49:01;6.20;84.70
18365;DHT22;9309;52.126;11.616;2023-01-10T07:51:29;6.00;85.30
18365;DHT22;9309;52.126;11.616;2023-01-10T07:53:56;6.00;85.40
18365;DHT22;9309;52.126;11.616;2023-01-10T07:56:22;5.90;85.30
18365;DHT22;9309;52.126;11.616;2023-01-10T07:58:51;5.90;85.50
18365;DHT22;9309;52.126;11.616;2023-01-10T08:01:18;5.90;86.00
18365;DHT22;9309;52.126;11.616;2023-01-10T08:03:44;5.90;85.20
18365;DHT22;9309;52.126;11.616;2023-01-10T08:06:11;6.00;85.30
18365;DHT22;9309;52.126;11.616;2023-01-10T08:08:39;6.00;85.00
18365;DHT22;9309;52.126;11.616;2023-01-10T08:11:06;6.00;85.30
18365;DHT22;9309;52.126;11.616;2023-01-10T08:13:33;6.10;84.50
18365;DHT22;9309;52.126;11.616;2023-01-10T08:16:03;6.20;83.60
18365;DHT22;9309;52.126;11.616;2023-01-10T08:18:31;6.30;84.00
18365;DHT22;9309;52.126;11.616;2023-01-10T08:20:57;6.40;83.10
18365;DHT22;9309;52.126;11.616;2023-01-10T08:23:25;6.40;83.30
18365;DHT22;9309;52.126;11.616;2023-01-10T08:25:53;6.30;83.20
18365;DHT22;9309;52.126;11.616;2023-01-10T08:28:20;6.30;82.90
18365;DHT22;9309;52.126;11.616;2023-01-10T08:30:50;6.50;82.80
18365;DHT22;9309;52.126;11.616;2023-01-10T08:33:20;6.50;81.80
18365;DHT22;9309;52.126;11.616;2023-01-10T08:35:47;6.40;82.50
18365;DHT22;9309;52.126;11.616;2023-01-10T08:38:13;6.60;81.70
18365;DHT22;9309;52.126;11.616;2023-01-10T08:40:40;6.50;81.90
18365;DHT22;9309;52.126;11.616;2023-01-10T08:43:10;6.70;81.20
18365;DHT22;9309;52.126;11.616;2023-01-10T08:45:38;6.70;81.00
18365;DHT22;9309;52.126;11.616;2023-01-10T08:48:05;6.60;81.20
18365;DHT22;9309;52.126;11.616;2023-01-10T08:50:34;6.60;81.70
18365;DHT22;9309;52.126;11.616;2023-01-10T08:53:01;6.60;81.60
18365;DHT22;9309;52.126;11.616;2023-01-10T08:55:28;6.60;81.50
18365;DHT22;9309;52.126;11.616;2023-01-10T08:57:57;6.70;81.20
18365;DHT22;9309;52.126;11.616;2023-01-10T09:00:26;6.60;81.00
18365;DHT22;9309;52.126;11.616;2023-01-10T09:02:53;6.70;80.60
18365;DHT22;9309;52.126;11.616;2023-01-10T09:05:19;6.70;80.80
18365;DHT22;9309;52.126;11.616;2023-01-10T09:07:46;6.60;80.40
18365;DHT22;9309;52.126;11.616;2023-01-10T09:10:13;6.60;80.60
18365;DHT22;9309;52.126;11.616;2023-01-10T09:12:40;6.80;79.50
18365;DHT22;9309;52.126;11.616;2023-01-10T09:15:24;6.90;78.50
18365;DHT22;9309;52.126;11.616;2023-01-10T09:17:54;7.00;78.90
18365;DHT22;9309;52.126;11.616;2023-01-10T09:20:21;7.00;78.60
18365;DHT22;9309;52.126;11.616;2023-01-10T09:22:48;7.10;78.20
18365;DHT22;9309;52.126;11.616;2023-01-10T09:25:18;7.10;78.20
18365;DHT22;9309;52.126;11.616;2023-01-10T09:27:45;7.20;77.50
18365;DHT22;9309;52.126;11.616;2023-01-10T09:30:13;7.20;77.80
18365;DHT22;9309;52.126;11.616;2023-01-10T09:32:40;7.20;77.60
18365;DHT22;9309;52.126;11.616;2023-01-10T09:35:08;7.20;77.80
18365;DHT22;9309;52.126;11.616;2023-01-10T09:37:34;7.10;78.10
18365;DHT22;9309;52.126;11.616;2023-01-10T09:40:04;7.10;77.80
18365;DHT22;9309;52.126;11.616;2023-01-10T09:42:42;7.20;77.70
18365;DHT22;9309;52.126;11.616;2023-01-10T09:45:17;7.10;77.70
18365;DHT22;9309;52.126;11.616;2023-01-10T09:47:51;7.20;77.60
18365;DHT22;9309;52.126;11.616;2023-01-10T09:50:26;7.20;77.80
18365;DHT22;9309;52.126;11.616;2023-01-10T09:52:57;7.30;77.30
18365;DHT22;9309;52.126;11.616;2023-01-10T09:55:30;7.40;77.00
18365;DHT22;9309;52.126;11.616;2023-01-10T09:57:59;7.40;77.30
18365;DHT22;9309;52.126;11.616;2023-01-10T10:00:35;7.50;76.30
18365;DHT22;9309;52.126;11.616;2023-01-10T10:03:05;7.50;76.10
18365;DHT22;9309;52.126;11.616;2023-01-10T10:05:35;7.40;77.10
18365;DHT22;9309;52.126;11.616;2023-01-10T10:08:02;7.50;76.60
18365;DHT22;9309;52.126;11.616;2023-01-10T10:10:36;7.50;75.90
18365;DHT22;9309;52.126;11.616;2023-01-10T10:13:14;7.50;76.00
18365;DHT22;9309;52.126;11.616;2023-01-10T10:15:45;7.70;75.70
18365;DHT22;9309;52.126;11.616;2023-01-10T10:18:22;8.70;73.20
18365;DHT22;9309;52.126;11.616;2023-01-10T10:20:57;9.90;69.10
18365;DHT22;9309;52.126;11.616;2023-01-10T10:23:40;10.40;65.10
18365;DHT22;9309;52.126;11.616;2023-01-10T10:26:14;9.50;68.30
18365;DHT22;9309;52.126;11.616;2023-01-10T10:29:02;10.80;66.50
18365;DHT22;9309;52.126;11.616;2023-01-10T10:31:47;12.90;58.30
18365;DHT22;9309;52.126;11.616;2023-01-10T10:34:22;13.10;54.60
18365;DHT22;9309;52.126;11.616;2023-01-10T10:36:55;11.60;60.00
18365;DHT22;9309;52.126;11.616;2023-01-10T10:39:28;11.70;58.70
18365;DHT22;9309;52.126;11.616;2023-01-10T10:41:57;11.90;58.30
18365;DHT22;9309;52.126;11.616;2023-01-10T10:44:36;11.30;59.80
18365;DHT22;9309;52.126;11.616;2023-01-10T10:47:12;10.90;60.70
18365;DHT22;9309;52.126;11.616;2023-01-10T10:49:42;10.20;63.50
18365;DHT22;9309;52.126;11.616;2023-01-10T10:52:19;9.50;65.50
18365;DHT22;9309;52.126;11.616;2023-01-10T10:54:48;9.10;67.60
18365;DHT22;9309;52.126;11.616;2023-01-10T10:57:14;8.80;69.30
18365;DHT22;9309;52.126;11.616;2023-01-10T10:59:43;8.60;70.00
18365;DHT22;9309;52.126;11.616;2023-01-10T11:02:20;8.30;70.70
18365;DHT22;9309;52.126;11.616;2023-01-10T11:04:47;8.00;71.70
18365;DHT22;9309;52.126;11.616;2023-01-10T11:07:17;8.10;71.40
18365;DHT22;9309;52.126;11.616;2023-01-10T11:09:46;8.00;72.30
18365;DHT22;9309;52.126;11.616;2023-01-10T11:12:17;8.10;71.90
18365;DHT22;9309;52.126;11.616;2023-01-10T11:14:47;8.40;71.40
18365;DHT22;9309;52.126;11.616;2023-01-10T11:17:20;8.50;71.00
18365;DHT22;9309;52.126;11.616;2023-01-10T11:19:59;8.50;70.60
18365;DHT22;9309;52.126;11.616;2023-01-10T11:22:30;8.50;70.50
18365;DHT22;9309;52.126;11.616;2023-01-10T11:25:00;8.50;70.80
18365;DHT22;9309;52.126;11.616;2023-01-10T11:27:29;8.70;69.70
18365;DHT22;9309;52.126;11.616;2023-01-10T11:29:58;8.70;69.50
18365;DHT22;9309;52.126;11.616;2023-01-10T11:32:32;8.80;69.90
18365;DHT22;9309;52.126;11.616;2023-01-10T11:35:01;8.80;69.70
18365;DHT22;9309;52.126;11.616;2023-01-10T11:37:31;8.70;69.80
18365;DHT22;9309;52.126;11.616;2023-01-10T11:40:15;8.60;69.40
18365;DHT22;9309;52.126;11.616;2023-01-10T11:42:42;8.40;71.30
18365;DHT22;9309;52.126;11.616;2023-01-10T11:45:24;8.40;71.20
18365;DHT22;9309;52.126;11.616;2023-01-10T11:47:53;8.40;70.70
18365;DHT22;9309;52.126;11.616;2023-01-10T11:50:22;8.40;71.40
18365;DHT22;9309;52.126;11.616;2023-01-10T11:52:51;8.50;70.70
18365;DHT22;9309;52.126;11.616;2023-01-10T11:55:20;8.30;71.60
18365;DHT22;9309;52.126;11.616;2023-01-10T11:57:55;8.30;71.50
18365;DHT22;9309;52.126;11.616;2023-01-10T12:00:30;8.40;71.90
18365;DHT22;9309;52.126;11.616;2023-01-10T12:02:58;8.40;71.10
18365;DHT22;9309;52.126;11.616;2023-01-10T12:05:26;8.50;72.00
18365;DHT22;9309;52.126;11.616;2023-01-10T12:07:56;8.40;72.80
18365;DHT22;9309;52.126;11.616;2023-01-10T12:10:25;8.40;72.10
18365;DHT22;9309;52.126;11.616;2023-01-10T12:12:53;8.40;71.60
18365;DHT22;9309;52.126;11.616;2023-01-10T12:15:24;8.60;71.70
18365;DHT22;9309;52.126;11.616;2023-01-10T12:17:52;8.70;71.50
18365;DHT22;9309;52.126;11.616;2023-01-10T12:20:21;8.80;71.00
18365;DHT22;9309;52.126;11.616;2023-01-10T12:22:51;8.90;70.60
18365;DHT22;9309;52.126;11.616;2023-01-10T12:25:23;8.70;71.00
18365;DHT22;9309;52.126;11.616;2023-01-10T12:27:54;8.60;71.20
18365;DHT22;9309;52.126;11.616;2023-01-10T12:30:29;8.80;70.70
18365;DHT22;9309;52.126;11.616;2023-01-10T12:32:58;8.60;71.40
18365;DHT22;9309;52.126;11.616;2023-01-10T12:35:35;8.70;71.00
18365;DHT22;9309;52.126;11.616;2023-01-10T12:38:09;8.70;69.80
18365;DHT22;9309;52.126;11.616;2023-01-10T12:40:47;8.80;69.90
18365;DHT22;9309;52.126;11.616;2023-01-10T12:43:17;8.80;70.60
18365;DHT22;9309;52.126;11.616;2023-01-10T12:46:09;8.70;71.00
18365;DHT22;9309;52.126;11.616;2023-01-10T12:48:45;8.70;70.30
18365;DHT22;9309;52.126;11.616;2023-01-10T12:51:14;8.70;70.20
18365;DHT22;9309;52.126;11.616;2023-01-10T12:53:45;8.80;70.30
18365;DHT22;9309;52.126;11.616;2023-01-10T12:56:15;8.70;69.50
18365;DHT22;9309;52.126;11.616;2023-01-10T12:58:44;8.70;69.80
18365;DHT22;9309;52.126;11.616;2023-01-10T13:01:14;8.70;69.80
18365;DHT22;9309;52.126;11.616;2023-01-10T13:03:42;8.60;70.20
18365;DHT22;9309;52.126;11.616;2023-01-10T13:08:41;8.60;70.70
18365;DHT22;9309;52.126;11.616;2023-01-10T13:11:11;8.50;71.80
18365;DHT22;9309;52.126;11.616;2023-01-10T13:13:43;8.50;71.20
18365;DHT22;9309;52.126;11.616;2023-01-10T13:16:31;8.50;71.70
18365;DHT22;9309;52.126;11.616;2023-01-10T13:19:04;8.50;71.30
18365;DHT22;9309;52.126;11.616;2023-01-10T13:21:32;8.40;71.40
18365;DHT22;9309;52.126;11.616;2023-01-10T13:24:01;8.30;71.00
18365;DHT22;9309;52.126;11.616;2023-01-10T13:26:49;8.20;71.00
18365;DHT22;9309;52.126;11.616;2023-01-10T13:29:21;8.20;71.20
18365;DHT22;9309;52.126;11.616;2023-01-10T13:31:49;8.10;71.40
18365;DHT22;9309;52.126;11.616;2023-01-10T13:34:23;8.10;71.00
18365;DHT22;9309;52.126;11.616;2023-01-10T13:36:53;8.10;70.80
18365;DHT22;9309;52.126;11.616;2023-01-10T13:39:23;8.10;70.80
18365;DHT22;9309;52.126;11.616;2023-01-10T13:42:23;8.20;69.90
18365;DHT22;9309;52.126;11.616;2023-01-10T13:45:22;8.20;70.10
18365;DHT22;9309;52.126;11.616;2023-01-10T13:48:03;8.30;69.60
18365;DHT22;9309;52.126;11.616;2023-01-10T13:50:51;8.20;70.50
18365;DHT22;9309;52.126;11.616;2023-01-10T13:56:32;8.30;70.30
18365;DHT22;9309;52.126;11.616;2023-01-10T13:59:00;8.20;70.20
18365;DHT22;9309;52.126;11.616;2023-01-10T14:01:53;8.20;70.60
18365;DHT22;9309;52.126;11.616;2023-01-10T14:04:39;8.10;70.40
18365;DHT22;9309;52.126;11.616;2023-01-10T14:07:21;8.00;70.70
18365;DHT22;9309;52.126;11.616;2023-01-10T14:09:48;8.00;71.30
18365;DHT22;9309;52.126;11.616;2023-01-10T14:12:28;8.10;70.60
18365;DHT22;9309;52.126;11.616;2023-01-10T14:15:02;8.20;70.00
18365;DHT22;9309;52.126;11.616;2023-01-10T14:17:32;8.20;69.80
18365;DHT22;9309;52.126;11.616;2023-01-10T14:20:05;8.10;69.80
18365;DHT22;9309;52.126;11.616;2023-01-10T14:22:35;8.10;69.70
18365;DHT22;9309;52.126;11.616;2023-01-10T14:25:04;8.10;70.30
18365;DHT22;9309;52.126;11.616;2023-01-10T14:27:41;8.10;70.30
18365;DHT22;9309;52.126;11.616;2023-01-10T14:30:15;8.10;69.90
18365;DHT22;9309;52.126;11.616;2023-01-10T14:32:46;8.20;70.40
18365;DHT22;9309;52.126;11.616;2023-01-10T14:35:17;8.30;70.00
18365;DHT22;9309;52.126;11.616;2023-01-10T14:37:49;8.30;69.90
18365;DHT22;9309;52.126;11.616;2023-01-10T14:40:25;7.90;71.30
18365;DHT22;9309;52.126;11.616;2023-01-10T14:42:53;7.70;72.20
18365;DHT22;9309;52.126;11.616;2023-01-10T14:45:32;7.70;71.70
18365;DHT22;9309;52.126;11.616;2023-01-10T14:48:18;7.60;72.40
18365;DHT22;9309;52.126;11.616;2023-01-10T14:50:47;7.60;72.70
18365;DHT22;9309;52.126;11.616;2023-01-10T14:53:24;7.70;72.90
18365;DHT22;9309;52.126;11.616;2023-01-10T14:55:51;7.60;73.00
18365;DHT22;9309;52.126;11.616;2023-01-10T14:58:18;7.70;72.80
18365;DHT22;9309;52.126;11.616;2023-01-10T15:00:47;7.50;73.70
18365;DHT22;9309;52.126;11.616;2023-01-10T15:03:19;7.40;74.70
18365;DHT22;9309;52.126;11.616;2023-01-10T15:05:48;7.40;73.80
18365;DHT22;9309;52.126;11.616;2023-01-10T15:08:19;7.30;74.80
18365;DHT22;9309;52.126;11.616;2023-01-10T15:10:48;7.20;75.00
18365;DHT22;9309;52.126;11.616;2023-01-10T15:13:18;7.20;75.10
18365;DHT22;9309;52.126;11.616;2023-01-10T15:15:47;7.10;75.40
18365;DHT22;9309;52.126;11.616;2023-01-10T15:18:28;7.30;75.00
18365;DHT22;9309;52.126;11.616;2023-01-10T15:20:58;7.30;74.90
18365;DHT22;9309;52.126;11.616;2023-01-10T15:23:31;7.20;74.90
18365;DHT22;9309;52.126;11.616;2023-01-10T15:26:00;7.10;75.60
18365;DHT22;9309;52.126;11.616;2023-01-10T15:28:28;7.00;75.90
18365;DHT22;9309;52.126;11.616;2023-01-10T15:30:55;7.00;76.10
18365;DHT22;9309;52.126;11.616;2023-01-10T15:33:27;7.00;76.20
18365;DHT22;9309;52.126;11.616;2023-01-10T15:35:55;6.90;76.40
18365;DHT22;9309;52.126;11.616;2023-01-10T15:38:23;6.90;76.30
18365;DHT22;9309;52.126;11.616;2023-01-10T15:40:56;6.90;76.20
18365;DHT22;9309;52.126;11.616;2023-01-10T15:43:24;6.90;76.20
18365;DHT22;9309;52.126;11.616;2023-01-10T15:45:52;6.90;76.00
18365;DHT22;9309;52.126;11.616;2023-01-10T15:48:33;6.90;76.00
18365;DHT22;9309;52.126;11.616;2023-01-10T15:51:01;7.00;75.20
18365;DHT22;9309;52.126;11.616;2023-01-10T15:53:54;7.10;75.00
18365;DHT22;9309;52.126;11.616;2023-01-10T15:56:26;7.20;74.30
18365;DHT22;9309;52.126;11.616;2023-01-10T15:58:53;7.30;73.90
18365;DHT22;9309;52.126;11.616;2023-01-10T16:01:20;7.50;73.30
18365;DHT22;9309;52.126;11.616;2023-01-10T16:03:50;7.50;73.00
18365;DHT22;9309;52.126;11.616;2023-01-10T16:06:23;7.60;73.20
18365;DHT22;9309;52.126;11.616;2023-01-10T16:08:52;7.70;73.20
18365;DHT22;9309;52.126;11.616;2023-01-10T16:11:22;7.50;73.60
18365;DHT22;9309;52.126;11.616;2023-01-10T16:14:07;7.40;73.40
18365;DHT22;9309;52.126;11.616;2023-01-10T16:16:34;7.20;74.50
18365;DHT22;9309;52.126;11.616;2023-01-10T16:19:02;7.10;74.90